createdAt,value
2018-06-18T00:01:08.813Z,13.22
2018-06-18T00:04:13.443Z,13.18
2018-06-18T00:07:18.134Z,13.18
2018-06-18T00:10:22.804Z,13.16
2018-06-18T00:13:27.161Z,13.16
2018-06-18T00:16:31.554Z,13.15
2018-06-18T00:19:35.922Z,13.09
2018-06-18T00:22:40.311Z,13.07
2018-06-18T00:25:44.685Z,13.06
2018-06-18T00:28:49.045Z,13.06
2018-06-18T00:31:53.417Z,13.03
2018-06-18T00:34:57.857Z,13.01
2018-06-18T00:38:02.230Z,13.01
2018-06-18T00:41:06.710Z,13.00
2018-06-18T00:44:11.085Z,12.94
2018-06-18T00:47:15.449Z,12.95
2018-06-18T00:50:19.829Z,13.02
2018-06-18T00:53:25.038Z,13.03
2018-06-18T00:56:29.441Z,13.06
2018-06-18T00:59:34.077Z,13.04
2018-06-18T01:02:38.502Z,13.03
2018-06-18T01:05:42.872Z,13.02
2018-06-18T01:08:47.254Z,13.01
2018-06-18T01:11:51.634Z,12.99
2018-06-18T01:14:56.009Z,12.98
2018-06-18T01:18:00.384Z,12.96
2018-06-18T01:21:04.833Z,12.94
2018-06-18T01:24:28.133Z,12.91
2018-06-18T01:27:32.496Z,12.88
2018-06-18T01:30:37.228Z,12.85
2018-06-18T01:33:41.661Z,12.79
2018-06-18T01:36:46.049Z,12.78
2018-06-18T01:39:50.423Z,12.75
2018-06-18T01:42:54.813Z,12.73
2018-06-18T01:45:59.201Z,12.69
2018-06-18T01:49:03.580Z,12.68
2018-06-18T01:52:07.957Z,12.69
2018-06-18T01:55:12.341Z,12.70
2018-06-18T01:58:16.714Z,12.68
2018-06-18T02:01:21.095Z,12.64
2018-06-18T02:04:26.301Z,12.62
2018-06-18T02:07:30.684Z,12.63
2018-06-18T02:10:35.073Z,12.60
2018-06-18T02:13:39.420Z,12.59
2018-06-18T02:16:43.789Z,12.57
2018-06-18T02:19:48.161Z,12.55
2018-06-18T02:22:52.522Z,12.56
2018-06-18T02:25:57.031Z,12.56
2018-06-18T02:29:07.490Z,12.55
2018-06-18T02:32:17.353Z,12.54
2018-06-18T02:35:27.177Z,12.54
2018-06-18T02:38:33.059Z,12.52
2018-06-18T02:41:37.838Z,12.51
2018-06-18T02:44:42.388Z,12.51
2018-06-18T02:47:46.952Z,12.52
2018-06-18T02:50:51.505Z,12.50
2018-06-18T02:53:55.915Z,12.50
2018-06-18T02:57:04.592Z,12.53
2018-06-18T03:00:09.028Z,12.58
2018-06-18T03:03:13.432Z,12.63
2018-06-18T03:06:17.785Z,12.63
2018-06-18T03:09:22.148Z,12.68
2018-06-18T03:12:26.504Z,12.69
2018-06-18T03:15:30.897Z,12.73
2018-06-18T03:18:40.453Z,12.78
2018-06-18T03:21:50.003Z,12.84
2018-06-18T03:24:59.767Z,12.93
2018-06-18T03:28:09.530Z,13.03
2018-06-18T03:31:14.326Z,13.06
2018-06-18T03:34:18.745Z,13.11
2018-06-18T03:37:23.147Z,13.20
2018-06-18T03:40:27.544Z,13.23
2018-06-18T03:43:33.661Z,13.31
2018-06-18T03:46:38.193Z,13.41
2018-06-18T03:49:42.593Z,13.44
2018-06-18T03:52:46.985Z,13.44
2018-06-18T03:55:55.723Z,13.47
2018-06-18T03:59:00.149Z,13.51
2018-06-18T04:02:17.976Z,13.53
2018-06-18T04:05:27.830Z,13.59
2018-06-18T04:08:32.213Z,13.61
2018-06-18T04:11:41.783Z,13.63
2018-06-18T04:14:46.192Z,13.66
2018-06-18T04:17:50.609Z,13.76
2018-06-18T04:20:55.001Z,13.85
2018-06-18T04:23:59.414Z,13.89
2018-06-18T04:27:03.833Z,13.93
2018-06-18T04:30:08.217Z,14.00
2018-06-18T04:33:14.317Z,13.99
2018-06-18T04:36:18.758Z,14.03
2018-06-18T04:39:23.170Z,14.05
2018-06-18T04:42:32.793Z,14.11
2018-06-18T04:45:43.438Z,14.17
2018-06-18T04:48:52.950Z,14.27
2018-06-18T04:51:57.363Z,14.33
2018-06-18T04:55:01.790Z,14.44
2018-06-18T04:58:06.525Z,14.49
2018-06-18T05:01:19.061Z,14.60
2018-06-18T05:04:23.687Z,14.67
2018-06-18T05:07:30.801Z,14.74
2018-06-18T05:10:35.870Z,14.86
2018-06-18T05:13:41.691Z,14.94
2018-06-18T05:16:48.104Z,15.04
2018-06-18T05:19:52.611Z,15.12
2018-06-18T05:23:00.223Z,15.13
2018-06-18T05:26:04.966Z,15.22
2018-06-18T05:29:10.180Z,15.40
2018-06-18T05:32:22.301Z,15.57
2018-06-18T05:35:33.252Z,15.66
2018-06-18T05:38:38.314Z,15.74
2018-06-18T05:41:49.688Z,15.75
2018-06-18T05:44:56.973Z,15.78
2018-06-18T05:48:01.542Z,15.85
2018-06-18T05:51:13.490Z,15.83
2018-06-18T05:54:18.705Z,15.80
2018-06-18T05:57:34.447Z,15.78
2018-06-18T06:00:42.787Z,15.85
2018-06-18T06:03:47.891Z,15.86
2018-06-18T06:06:58.542Z,15.87
2018-06-18T06:10:03.130Z,15.95
2018-06-18T06:13:19.686Z,16.04
2018-06-18T06:16:30.078Z,16.08
2018-06-18T06:19:46.086Z,16.15
2018-06-18T06:22:50.763Z,16.25
2018-06-18T06:25:57.262Z,16.32
2018-06-18T06:29:03.140Z,16.37
2018-06-18T06:32:12.464Z,16.39
2018-06-18T06:35:27.354Z,16.41
2018-06-18T06:38:32.172Z,16.44
2018-06-18T06:41:40.922Z,16.47
2018-06-18T06:44:49.530Z,16.49
2018-06-18T06:47:56.186Z,16.48
2018-06-18T06:51:06.275Z,16.52
2018-06-18T06:54:27.903Z,16.55
2018-06-18T06:57:33.076Z,16.60
2018-06-18T07:00:51.341Z,16.61
2018-06-18T07:03:56.668Z,16.61
2018-06-18T07:07:13.554Z,16.64
2018-06-18T07:10:30.466Z,16.73
2018-06-18T07:13:35.268Z,16.78
2018-06-18T07:16:40.411Z,16.82
2018-06-18T07:23:13.242Z,16.98
2018-06-18T07:26:33.166Z,17.07
2018-06-18T07:36:56.047Z,17.37
2018-06-18T07:40:22.675Z,17.50
2018-06-18T07:43:53.900Z,17.60
2018-06-18T07:46:58.409Z,17.68
2018-06-18T07:50:04.264Z,17.73
2018-06-18T07:53:23.370Z,17.85
2018-06-18T07:56:54.145Z,17.98
2018-06-18T08:00:06.674Z,17.99
2018-06-18T08:03:11.284Z,17.88
2018-06-18T08:09:37.088Z,17.94
2018-06-18T08:12:43.225Z,17.95
2018-06-18T08:15:59.439Z,18.00
2018-06-18T08:19:12.907Z,18.01
2018-06-18T08:22:21.079Z,18.18
2018-06-18T08:25:26.058Z,18.30
2018-06-18T08:28:33.822Z,18.41
2018-06-18T08:31:44.470Z,18.41
2018-06-18T08:34:52.209Z,18.53
2018-06-18T08:37:59.440Z,18.68
2018-06-18T08:41:05.634Z,18.74
2018-06-18T08:44:11.264Z,18.86
2018-06-18T08:47:19.249Z,18.78
2018-06-18T08:50:29.420Z,18.62
2018-06-18T08:53:39.692Z,18.67
2018-06-18T08:56:49.731Z,18.65
2018-06-18T08:59:59.955Z,18.65
2018-06-18T09:03:10.500Z,18.56
2018-06-18T09:06:15.978Z,18.56
2018-06-18T09:09:22.196Z,18.44
2018-06-18T09:12:26.673Z,18.19
2018-06-18T09:15:31.802Z,18.17
2018-06-18T09:18:39.200Z,18.11
2018-06-18T09:21:46.337Z,18.01
2018-06-18T09:24:50.902Z,18.03
2018-06-18T09:27:55.983Z,18.09
2018-06-18T09:31:02.359Z,18.14
2018-06-18T09:34:09.440Z,18.18
2018-06-18T09:37:16.159Z,18.26
2018-06-18T09:40:22.728Z,18.37
2018-06-18T09:43:27.402Z,18.40
2018-06-18T09:46:35.305Z,18.47
2018-06-18T09:49:45.822Z,18.60
2018-06-18T09:52:55.455Z,18.74
2018-06-18T09:58:07.955Z,18.87
2018-06-18T10:01:22.254Z,18.88
2018-06-18T10:04:29.766Z,18.84
2018-06-18T10:07:39.756Z,18.66
2018-06-18T10:10:50.744Z,18.45
2018-06-18T10:13:57.417Z,18.16
2018-06-18T10:17:02.178Z,18.04
2018-06-18T10:20:09.335Z,17.99
2018-06-18T10:23:14.934Z,18.03
2018-06-18T10:26:28.025Z,18.05
2018-06-18T10:29:32.926Z,17.96
2018-06-18T10:32:43.963Z,17.86
2018-06-18T10:35:56.076Z,17.78
2018-06-18T10:39:08.108Z,17.77
2018-06-18T10:42:19.949Z,17.74
2018-06-18T10:45:34.955Z,17.74
2018-06-18T10:48:43.236Z,17.83
2018-06-18T10:51:52.317Z,17.82
2018-06-18T10:55:02.274Z,17.75
2018-06-18T10:58:10.467Z,17.66
2018-06-18T11:01:22.490Z,17.64
2018-06-18T11:04:29.965Z,17.63
2018-06-18T11:07:35.035Z,17.60
2018-06-18T11:10:45.553Z,17.49
2018-06-18T11:56:33.206Z,16.68
2018-06-18T11:59:42.889Z,16.71
2018-06-18T12:02:52.561Z,16.76
2018-06-18T12:06:02.149Z,16.83
2018-06-18T12:09:13.888Z,16.83
2018-06-18T12:12:18.538Z,16.86
2018-06-18T12:15:23.527Z,16.94
2018-06-18T12:18:28.612Z,17.02
2018-06-18T12:21:33.560Z,17.08
2018-06-18T12:24:37.987Z,17.19
2018-06-18T12:27:42.436Z,17.28
2018-06-18T12:30:46.841Z,17.40
2018-06-18T12:33:51.461Z,17.52
2018-06-18T12:36:55.914Z,17.55
2018-06-18T12:40:00.342Z,17.57
2018-06-18T12:43:04.831Z,17.55
2018-06-18T12:46:14.466Z,17.55
2018-06-18T12:49:24.181Z,17.57
2018-06-18T12:52:33.685Z,17.54
2018-06-18T12:55:43.363Z,17.56
2018-06-18T12:58:47.766Z,17.50
2018-06-18T13:02:21.497Z,17.46
2018-06-18T13:05:25.916Z,17.43
2018-06-18T13:08:30.313Z,17.44
2018-06-18T13:11:34.713Z,17.45
2018-06-18T13:14:39.096Z,17.39
2018-06-18T13:17:43.469Z,17.44
2018-06-18T13:20:47.849Z,17.47
2018-06-18T13:23:52.216Z,17.49
2018-06-18T13:26:56.605Z,17.46
2018-06-18T13:30:00.973Z,17.49
2018-06-18T13:33:05.385Z,17.52
2018-06-18T13:36:09.764Z,17.54
2018-06-18T13:39:19.256Z,17.53
2018-06-18T13:42:28.985Z,17.65
2018-06-18T13:45:43.454Z,17.70
2018-06-18T13:48:50.680Z,17.74
2018-06-18T13:51:55.065Z,17.79
2018-06-18T13:54:59.425Z,17.80
2018-06-18T13:58:03.800Z,17.84
2018-06-18T14:01:10.376Z,17.89
2018-06-18T14:04:14.744Z,17.96
2018-06-18T14:07:19.133Z,18.07
2018-06-18T14:10:23.501Z,18.24
2018-06-18T14:13:27.877Z,18.33
2018-06-18T14:16:32.208Z,18.36
2018-06-18T14:19:41.747Z,18.35
2018-06-18T14:22:46.149Z,18.38
2018-06-18T14:25:50.526Z,18.45
2018-06-18T14:28:54.889Z,18.44
2018-06-18T14:32:00.188Z,18.37
2018-06-18T14:35:09.762Z,18.34
2018-06-18T14:38:19.258Z,18.34
2018-06-18T14:41:23.646Z,18.37
2018-06-18T14:44:28.030Z,18.43
2018-06-18T14:47:32.463Z,18.58
2018-06-18T14:50:36.851Z,18.63
2018-06-18T14:53:41.236Z,18.67
2018-06-18T14:56:45.903Z,18.72
2018-06-18T15:00:00.516Z,18.74
2018-06-18T15:03:04.931Z,18.93
2018-06-18T15:06:09.317Z,19.01
2018-06-18T15:09:13.790Z,19.04
2018-06-18T15:12:20.961Z,19.08
2018-06-18T15:16:31.323Z,19.09
2018-06-18T15:19:35.721Z,19.04
2018-06-18T15:22:41.005Z,18.99
2018-06-18T15:25:49.306Z,18.98
2018-06-18T15:28:53.753Z,19.00
2018-06-18T15:31:58.145Z,19.00
2018-06-18T15:35:02.540Z,18.98
2018-06-18T15:38:06.987Z,18.98
2018-06-18T15:41:11.403Z,18.90
2018-06-18T15:44:15.866Z,18.89
2018-06-18T15:47:20.189Z,18.89
2018-06-18T15:50:24.605Z,18.91
2018-06-18T15:53:29.032Z,18.92
2018-06-18T15:56:33.479Z,18.94
2018-06-18T15:59:37.813Z,19.05
2018-06-18T16:02:42.327Z,19.01
2018-06-18T16:05:47.075Z,18.94
2018-06-18T16:08:51.505Z,18.90
2018-06-18T16:11:55.905Z,18.92
2018-06-18T16:15:00.289Z,19.02
2018-06-18T16:18:05.021Z,19.07
2018-06-18T16:21:09.396Z,19.06
2018-06-18T16:24:13.772Z,19.01
2018-06-18T16:27:18.185Z,18.91
2018-06-18T16:30:22.569Z,18.83
2018-06-18T16:33:26.973Z,18.84
2018-06-18T16:36:31.502Z,18.80
2018-06-18T16:39:35.883Z,18.78
2018-06-18T16:42:40.272Z,18.76
2018-06-18T16:45:44.660Z,18.72
2018-06-18T16:48:49.396Z,18.61
2018-06-18T16:51:53.772Z,18.57
2018-06-18T16:54:58.172Z,18.59
2018-06-18T16:58:02.602Z,18.59
2018-06-18T17:01:06.973Z,18.64
2018-06-18T17:04:11.347Z,18.68
2018-06-18T17:07:15.753Z,18.65
2018-06-18T17:10:20.140Z,18.59
2018-06-18T17:13:24.507Z,18.64
2018-06-18T17:16:28.878Z,18.65
2018-06-18T17:19:33.244Z,18.64
2018-06-18T17:22:37.605Z,18.61
2018-06-18T17:25:41.991Z,18.55
2018-06-18T17:28:46.345Z,18.52
2018-06-18T17:31:50.772Z,18.46
2018-06-18T17:34:55.189Z,18.42
2018-06-18T17:37:59.574Z,18.41
2018-06-18T17:41:04.022Z,18.45
2018-06-18T17:44:08.413Z,18.46
2018-06-18T17:47:12.805Z,18.42
2018-06-18T17:50:17.169Z,18.33
2018-06-18T17:53:21.554Z,18.25
2018-06-18T17:56:25.994Z,18.19
2018-06-18T17:59:30.528Z,18.22
2018-06-18T18:02:35.001Z,18.23
2018-06-18T18:05:39.370Z,18.23
2018-06-18T18:08:44.133Z,18.23
2018-06-18T18:11:48.503Z,18.19
2018-06-18T18:14:52.916Z,18.13
2018-06-18T18:17:57.281Z,18.09
2018-06-18T18:21:01.665Z,18.02
2018-06-18T18:24:06.100Z,17.98
2018-06-18T18:27:11.057Z,17.94
2018-06-18T18:30:15.484Z,17.93
2018-06-18T18:33:19.900Z,17.87
2018-06-18T18:36:24.349Z,17.86
2018-06-18T18:39:28.855Z,17.82
2018-06-18T18:42:33.189Z,17.79
2018-06-18T18:45:37.584Z,17.73
2018-06-18T18:48:42.007Z,17.71
2018-06-18T18:51:46.889Z,17.69
2018-06-18T18:56:07.404Z,17.63
2018-06-18T18:59:20.743Z,17.56
2018-06-18T19:02:25.154Z,17.51
2018-06-18T19:05:29.554Z,17.45
2018-06-18T19:08:33.921Z,17.42
2018-06-18T19:11:38.372Z,17.40
2018-06-18T19:14:42.767Z,17.37
2018-06-18T19:17:47.185Z,17.34
2018-06-18T19:21:09.990Z,17.36
2018-06-18T19:24:14.381Z,17.33
2018-06-18T19:27:18.800Z,17.37
2018-06-18T19:30:23.200Z,17.35
2018-06-18T19:33:52.777Z,17.35
2018-06-18T19:36:58.539Z,17.35
2018-06-18T19:40:02.905Z,17.30
2018-06-18T19:43:07.350Z,17.29
2018-06-18T19:46:11.748Z,17.26
2018-06-18T19:49:16.153Z,17.27
2018-06-18T19:52:20.586Z,17.29
2018-06-18T19:55:28.050Z,17.22
2018-06-18T19:58:32.448Z,17.22
2018-06-18T20:01:37.041Z,17.18
2018-06-18T20:04:41.448Z,17.14
2018-06-18T20:07:56.474Z,17.13
2018-06-18T20:11:00.848Z,17.10
2018-06-18T20:14:05.316Z,17.10
2018-06-18T20:17:09.746Z,17.05
2018-06-18T20:20:14.892Z,17.01
2018-06-18T20:23:22.572Z,16.98
2018-06-18T20:26:26.952Z,16.98
2018-06-18T20:29:31.368Z,16.95
2018-06-18T20:32:35.800Z,16.94
2018-06-18T20:35:44.476Z,16.95
2018-06-18T20:38:48.873Z,16.96
2018-06-18T20:41:53.283Z,16.95
2018-06-18T20:44:57.670Z,16.95
2018-06-18T20:48:02.049Z,16.90
2018-06-18T20:51:06.477Z,16.90
2018-06-18T20:54:11.789Z,16.90
2018-06-18T20:57:16.190Z,16.90
2018-06-18T21:00:20.584Z,16.94
2018-06-18T21:03:25.013Z,16.94
2018-06-18T21:06:29.443Z,16.92
2018-06-18T21:09:33.865Z,16.95
2018-06-18T21:12:38.277Z,16.97
2018-06-18T21:15:42.671Z,16.96
2018-06-18T21:18:47.079Z,16.96
2018-06-18T21:21:51.473Z,16.97
2018-06-18T21:24:55.880Z,16.95
2018-06-18T21:28:00.614Z,16.89
2018-06-18T21:31:05.038Z,16.91
2018-06-18T21:34:09.454Z,16.93
2018-06-18T21:37:13.869Z,16.91
2018-06-18T21:40:18.272Z,16.81
2018-06-18T21:43:22.696Z,16.81
2018-06-18T21:46:27.210Z,16.78
2018-06-18T21:49:31.593Z,16.75
2018-06-18T21:52:35.981Z,16.68
2018-06-18T21:55:40.393Z,16.67
2018-06-18T21:58:44.814Z,16.64
2018-06-18T22:01:49.240Z,16.59
2018-06-18T22:04:53.625Z,16.55
2018-06-18T22:07:58.114Z,16.52
2018-06-18T22:11:02.542Z,16.48
2018-06-18T22:14:06.994Z,16.42
2018-06-18T22:17:11.473Z,16.37
2018-06-18T22:20:15.897Z,16.33
2018-06-18T22:23:20.320Z,16.27
2018-06-18T22:26:24.748Z,16.23
2018-06-18T22:29:29.141Z,16.22
2018-06-18T22:32:33.569Z,16.23
2018-06-18T22:35:38.014Z,16.20
2018-06-18T22:38:42.414Z,16.18
2018-06-18T22:41:46.843Z,16.19
2018-06-18T22:44:51.869Z,16.12
2018-06-18T22:47:56.278Z,16.10
2018-06-18T22:51:00.708Z,16.06
2018-06-18T22:54:05.205Z,16.06
2018-06-18T22:57:09.563Z,16.00
2018-06-18T23:00:13.965Z,15.96
2018-06-18T23:03:18.381Z,15.94
2018-06-18T23:06:22.801Z,15.94
2018-06-18T23:09:27.222Z,15.92
2018-06-18T23:12:37.546Z,15.95
2018-06-18T23:15:41.685Z,16.03
2018-06-18T23:18:46.151Z,16.05
2018-06-18T23:21:50.577Z,16.12
2018-06-18T23:24:55.010Z,16.15
2018-06-18T23:27:59.413Z,16.16
2018-06-18T23:31:03.841Z,16.12
2018-06-18T23:34:08.296Z,16.12
2018-06-18T23:37:12.749Z,16.08
2018-06-18T23:40:17.189Z,16.04
2018-06-18T23:43:21.585Z,16.04
2018-06-18T23:46:25.985Z,16.02
2018-06-18T23:49:30.383Z,16.00
2018-06-18T23:52:34.808Z,15.97
2018-06-18T23:55:39.244Z,15.94
2018-06-18T23:58:43.672Z,15.96
